sensor_id;sensor_type;location;lat;lon;timestamp;pressure;altitude;pressure_sealevel;temperature;humidity
7376;BME280;3728;42.266;24.944;2023-06-14T00:02:02;99211.47;;;21.27;100.00
7376;BME280;3728;42.266;24.944;2023-06-14T00:04:30;99208.41;;;21.39;100.00
7376;BME280;3728;42.266;24.944;2023-06-14T00:06:58;99213.00;;;21.38;100.00
7376;BME280;3728;42.266;24.944;2023-06-14T00:09:26;99206.13;;;21.37;100.00
7376;BME280;3728;42.266;24.944;2023-06-14T00:11:54;99202.34;;;21.31;100.00
7376;BME280;3728;42.266;24.944;2023-06-14T00:14:21;99219.84;;;21.36;100.00
7376;BME280;3728;42.266;24.944;2023-06-14T00:16:49;99204.97;;;21.28;100.00
7376;BME280;3728;42.266;24.944;2023-06-14T00:19:19;99206.16;;;21.34;100.00
7376;BME280;3728;42.266;24.944;2023-06-14T00:21:47;99204.97;;;21.24;100.00
7376;BME280;3728;42.266;24.944;2023-06-14T00:24:15;99203.84;;;21.29;100.00
7376;BME280;3728;42.266;24.944;2023-06-14T00:26:43;99200.81;;;21.27;100.00
7376;BME280;3728;42.266;24.944;2023-06-14T00:29:10;99198.13;;;21.30;100.00
7376;BME280;3728;42.266;24.944;2023-06-14T00:31:38;99204.59;;;21.33;100.00
7376;BME280;3728;42.266;24.944;2023-06-14T00:34:05;99193.94;;;21.26;100.00
7376;BME280;3728;42.266;24.944;2023-06-14T00:36:33;99199.25;;;21.19;100.00
7376;BME280;3728;42.266;24.944;2023-06-14T00:39:00;99192.78;;;21.05;100.00
7376;BME280;3728;42.266;24.944;2023-06-14T00:41:28;99189.66;;;20.96;100.00
7376;BME280;3728;42.266;24.944;2023-06-14T00:43:57;99190.06;;;20.98;100.00
7376;BME280;3728;42.266;24.944;2023-06-14T00:46:26;99181.66;;;20.93;100.00
7376;BME280;3728;42.266;24.944;2023-06-14T00:48:55;99177.84;;;20.90;100.00
7376;BME280;3728;42.266;24.944;2023-06-14T00:51:23;99177.09;;;20.93;100.00
7376;BME280;3728;42.266;24.944;2023-06-14T00:53:51;99178.22;;;20.85;100.00
7376;BME280;3728;42.266;24.944;2023-06-14T00:56:19;99178.59;;;20.87;100.00
7376;BME280;3728;42.266;24.944;2023-06-14T00:58:50;99182.81;;;20.88;100.00
7376;BME280;3728;42.266;24.944;2023-06-14T01:01:18;99180.50;;;20.90;100.00
7376;BME280;3728;42.266;24.944;2023-06-14T01:03:46;99178.97;;;20.89;100.00
7376;BME280;3728;42.266;24.944;2023-06-14T01:06:20;99183.16;;;20.83;100.00
7376;BME280;3728;42.266;24.944;2023-06-14T01:09:06;99180.88;;;20.82;100.00
7376;BME280;3728;42.266;24.944;2023-06-14T01:12:13;99172.47;;;20.73;100.00
7376;BME280;3728;42.266;24.944;2023-06-14T01:14:48;99181.22;;;20.70;100.00
7376;BME280;3728;42.266;24.944;2023-06-14T01:17:18;99175.09;;;20.62;100.00
7376;BME280;3728;42.266;24.944;2023-06-14T01:19:47;99176.94;;;20.48;100.00
7376;BME280;3728;42.266;24.944;2023-06-14T01:22:15;99181.50;;;20.54;100.00
7376;BME280;3728;42.266;24.944;2023-06-14T01:24:42;99177.72;;;20.55;100.00
7376;BME280;3728;42.266;24.944;2023-06-14T01:27:12;99172.44;;;20.62;100.00
7376;BME280;3728;42.266;24.944;2023-06-14T01:29:40;99174.72;;;20.64;100.00
7376;BME280;3728;42.266;24.944;2023-06-14T01:32:14;99170.91;;;20.61;100.00
7376;BME280;3728;42.266;24.944;2023-06-14T01:34:42;99170.16;;;20.61;100.00
7376;BME280;3728;42.266;24.944;2023-06-14T01:37:11;99167.50;;;20.64;100.00
7376;BME280;3728;42.266;24.944;2023-06-14T01:39:40;99174.31;;;20.62;100.00
7376;BME280;3728;42.266;24.944;2023-06-14T01:42:11;99173.22;;;20.63;100.00
7376;BME280;3728;42.266;24.944;2023-06-14T01:44:42;99170.94;;;20.65;100.00
7376;BME280;3728;42.266;24.944;2023-06-14T01:47:11;99167.88;;;20.63;100.00
7376;BME280;3728;42.266;24.944;2023-06-14T01:49:40;99168.66;;;20.67;100.00
7376;BME280;3728;42.266;24.944;2023-06-14T01:52:08;99164.88;;;20.68;100.00
7376;BME280;3728;42.266;24.944;2023-06-14T01:54:36;99159.53;;;20.68;100.00
7376;BME280;3728;42.266;24.944;2023-06-14T01:57:08;99162.59;;;20.77;100.00
7376;BME280;3728;42.266;24.944;2023-06-14T01:59:37;99161.78;;;20.66;100.00
7376;BME280;3728;42.266;24.944;2023-06-14T02:02:04;99159.50;;;20.64;100.00
7376;BME280;3728;42.266;24.944;2023-06-14T02:04:32;99162.16;;;20.57;100.00
7376;BME280;3728;42.266;24.944;2023-06-14T02:06:59;99160.63;;;20.53;100.00
7376;BME280;3728;42.266;24.944;2023-06-14T02:09:27;99160.59;;;20.49;100.00
7376;BME280;3728;42.266;24.944;2023-06-14T02:11:55;99163.66;;;20.51;100.00
7376;BME280;3728;42.266;24.944;2023-06-14T02:14:23;99167.09;;;20.55;100.00
7376;BME280;3728;42.266;24.944;2023-06-14T02:16:50;99173.91;;;20.53;100.00
7376;BME280;3728;42.266;24.944;2023-06-14T02:19:19;99165.91;;;20.49;100.00
7376;BME280;3728;42.266;24.944;2023-06-14T02:21:48;99171.28;;;20.60;100.00
7376;BME280;3728;42.266;24.944;2023-06-14T02:24:15;99169.00;;;20.62;100.00
7376;BME280;3728;42.266;24.944;2023-06-14T02:26:43;99173.91;;;20.53;100.00
7376;BME280;3728;42.266;24.944;2023-06-14T02:29:14;99172.00;;;20.50;100.00
7376;BME280;3728;42.266;24.944;2023-06-14T02:31:42;99176.53;;;20.49;100.00
7376;BME280;3728;42.266;24.944;2023-06-14T02:34:11;99174.66;;;20.46;100.00
7376;BME280;3728;42.266;24.944;2023-06-14T02:36:39;99181.09;;;20.45;100.00
7376;BME280;3728;42.266;24.944;2023-06-14T02:39:09;99176.16;;;20.43;100.00
7376;BME280;3728;42.266;24.944;2023-06-14T02:41:37;99181.84;;;20.42;100.00
7376;BME280;3728;42.266;24.944;2023-06-14T02:44:06;99184.09;;;20.36;100.00
7376;BME280;3728;42.266;24.944;2023-06-14T02:46:34;99179.56;;;20.40;100.00
7376;BME280;3728;42.266;24.944;2023-06-14T02:49:02;99180.28;;;20.37;100.00
7376;BME280;3728;42.266;24.944;2023-06-14T02:51:30;99181.41;;;20.33;100.00
7376;BME280;3728;42.266;24.944;2023-06-14T02:54:00;99184.78;;;20.23;100.00
7376;BME280;3728;42.266;24.944;2023-06-14T02:56:29;99188.22;;;20.27;100.00
7376;BME280;3728;42.266;24.944;2023-06-14T02:58:57;99186.69;;;20.26;100.00
7376;BME280;3728;42.266;24.944;2023-06-14T03:01:26;99183.69;;;20.31;100.00
7376;BME280;3728;42.266;24.944;2023-06-14T03:04:03;99195.06;;;20.28;100.00
7376;BME280;3728;42.266;24.944;2023-06-14T03:06:34;99194.31;;;20.31;100.00
7376;BME280;3728;42.266;24.944;2023-06-14T03:09:04;99202.69;;;20.33;100.00
7376;BME280;3728;42.266;24.944;2023-06-14T03:11:34;99204.19;;;20.27;100.00
7376;BME280;3728;42.266;24.944;2023-06-14T03:14:02;99206.47;;;20.25;100.00
7376;BME280;3728;42.266;24.944;2023-06-14T03:16:31;99209.84;;;20.22;100.00
7376;BME280;3728;42.266;24.944;2023-06-14T03:18:59;99208.41;;;20.35;100.00
7376;BME280;3728;42.266;24.944;2023-06-14T03:21:30;99205.00;;;20.34;100.00
7376;BME280;3728;42.266;24.944;2023-06-14T03:24:00;99204.63;;;20.32;100.00
7376;BME280;3728;42.266;24.944;2023-06-14T03:26:31;99200.75;;;20.26;100.00
7376;BME280;3728;42.266;24.944;2023-06-14T03:29:01;99210.91;;;20.14;100.00
7376;BME280;3728;42.266;24.944;2023-06-14T03:31:29;99215.00;;;20.01;100.00
7376;BME280;3728;42.266;24.944;2023-06-14T03:34:02;99217.31;;;20.06;100.00
7376;BME280;3728;42.266;24.944;2023-06-14T03:36:29;99210.84;;;20.07;100.00
7376;BME280;3728;42.266;24.944;2023-06-14T03:38:57;99219.22;;;20.05;100.00
7376;BME280;3728;42.266;24.944;2023-06-14T03:41:25;99222.66;;;20.09;100.00
7376;BME280;3728;42.266;24.944;2023-06-14T03:43:53;99229.47;;;20.07;100.00
7376;BME280;3728;42.266;24.944;2023-06-14T03:46:20;99239.81;;;20.19;100.00
7376;BME280;3728;42.266;24.944;2023-06-14T03:48:48;99239.81;;;20.19;100.00
7376;BME280;3728;42.266;24.944;2023-06-14T03:51:17;99236.91;;;20.34;100.00
7376;BME280;3728;42.266;24.944;2023-06-14T03:53:45;99238.50;;;20.46;100.00
7376;BME280;3728;42.266;24.944;2023-06-14T03:56:33;99245.38;;;20.54;100.00
7376;BME280;3728;42.266;24.944;2023-06-14T03:59:05;99247.63;;;20.49;100.00
7376;BME280;3728;42.266;24.944;2023-06-14T04:01:33;99239.22;;;20.39;100.00
7376;BME280;3728;42.266;24.944;2023-06-14T04:04:01;99242.97;;;20.31;100.00
7376;BME280;3728;42.266;24.944;2023-06-14T04:06:28;99247.94;;;20.36;100.00
7376;BME280;3728;42.266;24.944;2023-06-14T04:09:00;99250.66;;;20.43;100.00
7376;BME280;3728;42.266;24.944;2023-06-14T04:11:29;99252.94;;;20.45;100.00
7376;BME280;3728;42.266;24.944;2023-06-14T04:13:58;99255.94;;;20.40;100.00
7376;BME280;3728;42.266;24.944;2023-06-14T04:16:31;99249.94;;;20.54;100.00
7376;BME280;3728;42.266;24.944;2023-06-14T04:19:00;99256.78;;;20.51;100.00
7376;BME280;3728;42.266;24.944;2023-06-14T04:21:28;99257.91;;;20.50;100.00
7376;BME280;3728;42.266;24.944;2023-06-14T04:23:58;99259.78;;;20.46;100.00
7376;BME280;3728;42.266;24.944;2023-06-14T04:26:29;99259.13;;;20.63;100.00
7376;BME280;3728;42.266;24.944;2023-06-14T04:29:00;99264.47;;;20.70;100.00
7376;BME280;3728;42.266;24.944;2023-06-14T04:31:31;99267.16;;;20.74;100.00
7376;BME280;3728;42.266;24.944;2023-06-14T04:34:06;99266.81;;;20.82;100.00
7376;BME280;3728;42.266;24.944;2023-06-14T04:36:34;99274.03;;;20.85;100.00
7376;BME280;3728;42.266;24.944;2023-06-14T04:39:05;99272.97;;;20.93;100.00
7376;BME280;3728;42.266;24.944;2023-06-14T04:41:33;99269.94;;;20.98;100.00
7376;BME280;3728;42.266;24.944;2023-06-14T04:44:02;99281.72;;;21.01;100.00
7376;BME280;3728;42.266;24.944;2023-06-14T04:46:36;99279.88;;;21.05;100.00
7376;BME280;3728;42.266;24.944;2023-06-14T04:51:38;99281.03;;;21.07;100.00
7376;BME280;3728;42.266;24.944;2023-06-14T04:54:06;99278.03;;;21.20;100.00
7376;BME280;3728;42.266;24.944;2023-06-14T04:56:36;99286.06;;;21.44;99.59
7376;BME280;3728;42.266;24.944;2023-06-14T04:59:05;99290.66;;;21.51;97.87
7376;BME280;3728;42.266;24.944;2023-06-14T05:01:34;99288.31;;;21.32;100.00
7376;BME280;3728;42.266;24.944;2023-06-14T05:04:03;99286.03;;;21.27;100.00
7376;BME280;3728;42.266;24.944;2023-06-14T05:06:31;99281.81;;;21.22;100.00
7376;BME280;3728;42.266;24.944;2023-06-14T05:08:58;99283.00;;;21.32;100.00
7376;BME280;3728;42.266;24.944;2023-06-14T05:11:26;99295.19;;;21.40;100.00
7376;BME280;3728;42.266;24.944;2023-06-14T05:14:14;99291.78;;;21.39;99.46
7376;BME280;3728;42.266;24.944;2023-06-14T05:16:43;99295.22;;;21.47;99.06
7376;BME280;3728;42.266;24.944;2023-06-14T05:19:11;99298.28;;;21.45;99.15
7376;BME280;3728;42.266;24.944;2023-06-14T05:21:41;99300.97;;;21.70;97.00
7376;BME280;3728;42.266;24.944;2023-06-14T05:24:09;99309.72;;;21.74;96.20
7376;BME280;3728;42.266;24.944;2023-06-14T05:26:38;99305.59;;;21.87;96.15
7376;BME280;3728;42.266;24.944;2023-06-14T05:29:08;99308.97;;;21.77;96.52
7376;BME280;3728;42.266;24.944;2023-06-14T05:31:35;99310.88;;;21.83;97.61
7376;BME280;3728;42.266;24.944;2023-06-14T05:34:03;99312.47;;;21.99;97.03
7376;BME280;3728;42.266;24.944;2023-06-14T05:36:31;99315.91;;;21.99;97.01
7376;BME280;3728;42.266;24.944;2023-06-14T05:38:58;99314.00;;;22.14;97.15
7376;BME280;3728;42.266;24.944;2023-06-14T05:41:27;99321.63;;;22.29;93.43
7376;BME280;3728;42.266;24.944;2023-06-14T05:43:55;99323.16;;;22.37;91.77
7376;BME280;3728;42.266;24.944;2023-06-14T05:46:24;99325.03;;;22.44;93.09
7376;BME280;3728;42.266;24.944;2023-06-14T05:48:53;99327.28;;;22.60;91.85
7376;BME280;3728;42.266;24.944;2023-06-14T05:51:21;99326.91;;;22.58;91.06
7376;BME280;3728;42.266;24.944;2023-06-14T05:53:52;99336.06;;;22.74;86.90
7376;BME280;3728;42.266;24.944;2023-06-14T05:56:19;99333.69;;;23.08;84.95
7376;BME280;3728;42.266;24.944;2023-06-14T05:58:47;99334.88;;;22.93;85.73
7376;BME280;3728;42.266;24.944;2023-06-14T06:01:15;99340.94;;;23.07;84.44
7376;BME280;3728;42.266;24.944;2023-06-14T06:03:43;99343.28;;;22.88;86.15
7376;BME280;3728;42.266;24.944;2023-06-14T06:06:13;99352.31;;;23.29;83.13
7376;BME280;3728;42.266;24.944;2023-06-14T06:08:42;99345.88;;;23.16;83.96
7376;BME280;3728;42.266;24.944;2023-06-14T06:11:10;99356.91;;;23.25;82.44
7376;BME280;3728;42.266;24.944;2023-06-14T06:13:38;99356.50;;;23.30;83.04
7376;BME280;3728;42.266;24.944;2023-06-14T06:16:05;99348.91;;;23.18;85.03
7376;BME280;3728;42.266;24.944;2023-06-14T06:18:33;99348.53;;;23.20;83.85
7376;BME280;3728;42.266;24.944;2023-06-14T06:21:01;99349.66;;;23.29;83.81
7376;BME280;3728;42.266;24.944;2023-06-14T06:23:30;99350.69;;;23.60;81.19
7376;BME280;3728;42.266;24.944;2023-06-14T06:25:57;99350.38;;;23.37;80.45
7376;BME280;3728;42.266;24.944;2023-06-14T06:28:25;99354.56;;;23.45;80.09
7376;BME280;3728;42.266;24.944;2023-06-14T06:30:52;99347.16;;;23.70;78.20
7376;BME280;3728;42.266;24.944;2023-06-14T06:33:20;99362.63;;;24.03;76.13
7376;BME280;3728;42.266;24.944;2023-06-14T06:35:48;99358.28;;;23.61;80.16
7376;BME280;3728;42.266;24.944;2023-06-14T06:38:15;99365.06;;;23.76;79.53
7376;BME280;3728;42.266;24.944;2023-06-14T06:40:45;99360.53;;;23.73;78.17
7376;BME280;3728;42.266;24.944;2023-06-14T06:43:13;99365.16;;;23.62;79.76
7376;BME280;3728;42.266;24.944;2023-06-14T06:45:45;99361.00;;;23.51;80.07
7376;BME280;3728;42.266;24.944;2023-06-14T06:48:13;99362.00;;;23.81;78.32
7376;BME280;3728;42.266;24.944;2023-06-14T06:50:42;99365.09;;;23.73;80.17
7376;BME280;3728;42.266;24.944;2023-06-14T06:53:10;99361.78;;;23.51;82.82
7376;BME280;3728;42.266;24.944;2023-06-14T06:55:42;99365.22;;;23.48;82.76
7376;BME280;3728;42.266;24.944;2023-06-14T06:58:13;99363.66;;;23.58;81.66
7376;BME280;3728;42.266;24.944;2023-06-14T07:00:41;99366.72;;;23.60;82.67
7376;BME280;3728;42.266;24.944;2023-06-14T07:03:08;99364.34;;;23.72;80.43
7376;BME280;3728;42.266;24.944;2023-06-14T07:05:36;99361.66;;;23.72;81.36
7376;BME280;3728;42.266;24.944;2023-06-14T07:08:04;99361.13;;;24.02;81.21
7376;BME280;3728;42.266;24.944;2023-06-14T07:10:31;99375.63;;;24.53;76.94
7376;BME280;3728;42.266;24.944;2023-06-14T07:12:59;99371.09;;;24.90;74.93
7376;BME280;3728;42.266;24.944;2023-06-14T07:15:26;99380.50;;;24.65;75.47
7376;BME280;3728;42.266;24.944;2023-06-14T07:17:54;99385.59;;;24.52;77.67
7376;BME280;3728;42.266;24.944;2023-06-14T07:20:26;99377.81;;;24.68;74.80
7376;BME280;3728;42.266;24.944;2023-06-14T07:22:53;99367.19;;;24.58;75.72
7376;BME280;3728;42.266;24.944;2023-06-14T07:25:21;99363.91;;;24.39;78.00
7376;BME280;3728;42.266;24.944;2023-06-14T07:27:49;99362.25;;;24.53;77.97
7376;BME280;3728;42.266;24.944;2023-06-14T07:30:16;99357.47;;;24.71;78.62
7376;BME280;3728;42.266;24.944;2023-06-14T07:32:44;99367.63;;;24.93;76.21
7376;BME280;3728;42.266;24.944;2023-06-14T07:35:12;99368.97;;;25.42;73.59
7376;BME280;3728;42.266;24.944;2023-06-14T07:37:40;99364.53;;;25.29;74.11
7376;BME280;3728;42.266;24.944;2023-06-14T07:40:08;99364.22;;;25.23;73.63
7376;BME280;3728;42.266;24.944;2023-06-14T07:42:37;99360.91;;;25.12;77.68
7376;BME280;3728;42.266;24.944;2023-06-14T07:45:05;99357.88;;;25.10;78.86
7376;BME280;3728;42.266;24.944;2023-06-14T07:47:33;99355.94;;;25.44;76.29
7376;BME280;3728;42.266;24.944;2023-06-14T07:50:01;99363.34;;;25.63;76.67
7376;BME280;3728;42.266;24.944;2023-06-14T07:52:31;99352.72;;;25.56;75.71
7376;BME280;3728;42.266;24.944;2023-06-14T07:54:59;99356.31;;;25.73;74.51
7376;BME280;3728;42.266;24.944;2023-06-14T07:57:27;99351.41;;;25.95;72.77
7376;BME280;3728;42.266;24.944;2023-06-14T07:59:54;99359.69;;;26.04;72.40
7376;BME280;3728;42.266;24.944;2023-06-14T08:02:22;99361.94;;;26.09;72.81
7376;BME280;3728;42.266;24.944;2023-06-14T08:04:50;99367.56;;;26.18;71.67
7376;BME280;3728;42.266;24.944;2023-06-14T08:07:17;99369.97;;;26.35;70.78
7376;BME280;3728;42.266;24.944;2023-06-14T08:09:45;99367.53;;;26.44;72.10
7376;BME280;3728;42.266;24.944;2023-06-14T08:12:16;99364.16;;;26.60;68.30
7376;BME280;3728;42.266;24.944;2023-06-14T08:14:44;99366.69;;;26.71;67.38
7376;BME280;3728;42.266;24.944;2023-06-14T08:17:12;99376.03;;;26.63;70.10
7376;BME280;3728;42.266;24.944;2023-06-14T08:19:39;99370.38;;;26.80;67.91
7376;BME280;3728;42.266;24.944;2023-06-14T08:22:07;99376.97;;;26.76;66.91
7376;BME280;3728;42.266;24.944;2023-06-14T08:24:38;99372.78;;;26.75;70.55
7376;BME280;3728;42.266;24.944;2023-06-14T08:27:07;99373.22;;;27.12;64.27
7376;BME280;3728;42.266;24.944;2023-06-14T08:29:35;99380.84;;;27.14;65.50
7376;BME280;3728;42.266;24.944;2023-06-14T08:32:05;99379.63;;;27.38;64.95
7376;BME280;3728;42.266;24.944;2023-06-14T08:34:33;99376.56;;;27.56;62.82
7376;BME280;3728;42.266;24.944;2023-06-14T08:37:00;99377.00;;;27.54;62.28
7376;BME280;3728;42.266;24.944;2023-06-14T08:39:28;99379.03;;;27.66;61.78
7376;BME280;3728;42.266;24.944;2023-06-14T08:41:56;99383.00;;;27.42;62.21
7376;BME280;3728;42.266;24.944;2023-06-14T08:44:24;99380.66;;;27.44;63.49
7376;BME280;3728;42.266;24.944;2023-06-14T08:46:53;99387.81;;;27.31;65.73
7376;BME280;3728;42.266;24.944;2023-06-14T08:49:24;99386.63;;;27.32;61.30
7376;BME280;3728;42.266;24.944;2023-06-14T08:51:57;99390.41;;;27.38;60.95
7376;BME280;3728;42.266;24.944;2023-06-14T08:54:27;99389.47;;;27.05;64.16
7376;BME280;3728;42.266;24.944;2023-06-14T08:57:03;99386.09;;;27.01;65.65
7376;BME280;3728;42.266;24.944;2023-06-14T08:59:39;99382.09;;;27.09;68.50
7376;BME280;3728;42.266;24.944;2023-06-14T09:02:15;99377.13;;;27.47;64.06
7376;BME280;3728;42.266;24.944;2023-06-14T09:04:44;99385.03;;;27.38;66.63
7376;BME280;3728;42.266;24.944;2023-06-14T09:07:12;99389.66;;;27.73;62.17
7376;BME280;3728;42.266;24.944;2023-06-14T09:09:42;99389.66;;;27.73;61.60
7376;BME280;3728;42.266;24.944;2023-06-14T09:12:30;99389.72;;;28.06;60.26
7376;BME280;3728;42.266;24.944;2023-06-14T09:14:58;99388.75;;;27.96;62.45
7376;BME280;3728;42.266;24.944;2023-06-14T09:17:26;99379.69;;;28.06;59.14
7376;BME280;3728;42.266;24.944;2023-06-14T09:19:56;99378.59;;;28.36;56.38
7376;BME280;3728;42.266;24.944;2023-06-14T09:22:25;99383.00;;;28.14;59.61
7376;BME280;3728;42.266;24.944;2023-06-14T09:24:55;99376.38;;;27.83;60.30
7376;BME280;3728;42.266;24.944;2023-06-14T09:27:31;99370.91;;;27.86;60.02
7376;BME280;3728;42.266;24.944;2023-06-14T09:30:05;99376.03;;;27.97;60.36
7376;BME280;3728;42.266;24.944;2023-06-14T09:32:37;99361.44;;;28.30;57.71
7376;BME280;3728;42.266;24.944;2023-06-14T09:35:07;99367.75;;;28.39;56.35
7376;BME280;3728;42.266;24.944;2023-06-14T09:37:35;99360.38;;;28.56;56.54
7376;BME280;3728;42.266;24.944;2023-06-14T09:40:06;99361.19;;;28.40;55.35
7376;BME280;3728;42.266;24.944;2023-06-14T09:42:35;99369.50;;;28.30;56.53
7376;BME280;3728;42.266;24.944;2023-06-14T09:45:03;99360.72;;;28.58;54.24
7376;BME280;3728;42.266;24.944;2023-06-14T09:47:32;99349.34;;;28.51;54.22
7376;BME280;3728;42.266;24.944;2023-06-14T09:50:00;99351.28;;;28.50;54.23
7376;BME280;3728;42.266;24.944;2023-06-14T09:52:28;99354.03;;;28.79;53.95
7376;BME280;3728;42.266;24.944;2023-06-14T09:54:59;99356.00;;;28.62;56.09
7376;BME280;3728;42.266;24.944;2023-06-14T09:57:26;99353.81;;;28.57;59.23
7376;BME280;3728;42.266;24.944;2023-06-14T10:00:01;99346.91;;;28.56;60.25
7376;BME280;3728;42.266;24.944;2023-06-14T10:02:39;99352.53;;;28.78;58.60
7376;BME280;3728;42.266;24.944;2023-06-14T10:05:11;99348.88;;;28.84;57.30
7376;BME280;3728;42.266;24.944;2023-06-14T10:07:48;99346.56;;;29.28;53.40
7376;BME280;3728;42.266;24.944;2023-06-14T10:10:23;99342.31;;;29.27;53.81
7376;BME280;3728;42.266;24.944;2023-06-14T10:12:52;99337.56;;;29.18;52.67
7376;BME280;3728;42.266;24.944;2023-06-14T10:15:38;99334.88;;;29.18;51.97
7376;BME280;3728;42.266;24.944;2023-06-14T10:18:31;99334.44;;;29.20;53.50
7376;BME280;3728;42.266;24.944;2023-06-14T10:24:29;99328.03;;;29.13;56.85
7376;BME280;3728;42.266;24.944;2023-06-14T10:27:02;99335.41;;;29.26;54.91
7376;BME280;3728;42.266;24.944;2023-06-14T10:29:30;99339.44;;;29.46;56.42
7376;BME280;3728;42.266;24.944;2023-06-14T10:32:01;99332.78;;;29.76;56.04
7376;BME280;3728;42.266;24.944;2023-06-14T10:34:32;99326.56;;;30.01;57.27
7376;BME280;3728;42.266;24.944;2023-06-14T10:37:06;99321.69;;;30.33;53.71
7376;BME280;3728;42.266;24.944;2023-06-14T10:39:40;99331.38;;;30.87;49.76
7376;BME280;3728;42.266;24.944;2023-06-14T10:42:10;99326.97;;;30.59;52.66
7376;BME280;3728;42.266;24.944;2023-06-14T10:47:31;99332.25;;;30.62;52.96
7376;BME280;3728;42.266;24.944;2023-06-14T10:52:41;99322.91;;;30.76;51.03
7376;BME280;3728;42.266;24.944;2023-06-14T10:55:15;99327.59;;;30.63;51.98
7376;BME280;3728;42.266;24.944;2023-06-14T10:57:54;99320.38;;;30.25;51.32
7376;BME280;3728;42.266;24.944;2023-06-14T11:00:27;99316.28;;;30.55;51.83
7376;BME280;3728;42.266;24.944;2023-06-14T11:06:14;99316.41;;;30.52;52.77
7376;BME280;3728;42.266;24.944;2023-06-14T11:09:05;99314.34;;;30.56;49.62
7376;BME280;3728;42.266;24.944;2023-06-14T11:12:09;99312.81;;;30.20;49.80
7376;BME280;3728;42.266;24.944;2023-06-14T11:14:46;99304.72;;;30.55;49.62
7376;BME280;3728;42.266;24.944;2023-06-14T11:17:14;99305.97;;;30.63;48.40
7376;BME280;3728;42.266;24.944;2023-06-14T11:19:44;99307.00;;;30.78;49.89
7376;BME280;3728;42.266;24.944;2023-06-14T11:22:12;99300.38;;;30.35;49.69
7376;BME280;3728;42.266;24.944;2023-06-14T11:24:42;99289.75;;;30.41;50.53
7376;BME280;3728;42.266;24.944;2023-06-14T11:27:11;99301.72;;;30.96;48.58
7376;BME280;3728;42.266;24.944;2023-06-14T11:29:48;99300.56;;;31.06;48.04
7376;BME280;3728;42.266;24.944;2023-06-14T11:32:16;99298.44;;;31.01;48.89
7376;BME280;3728;42.266;24.944;2023-06-14T11:34:46;99292.47;;;31.06;48.59
7376;BME280;3728;42.266;24.944;2023-06-14T11:37:14;99300.06;;;30.98;49.34
7376;BME280;3728;42.266;24.944;2023-06-14T11:39:45;99293.91;;;30.98;48.90
7376;BME280;3728;42.266;24.944;2023-06-14T11:42:16;99296.09;;;31.12;45.31
7376;BME280;3728;42.266;24.944;2023-06-14T11:44:47;99294.88;;;31.04;47.16
7376;BME280;3728;42.266;24.944;2023-06-14T11:47:16;99289.88;;;31.02;46.72
7376;BME280;3728;42.266;24.944;2023-06-14T11:49:46;99287.00;;;30.97;46.58
7376;BME280;3728;42.266;24.944;2023-06-14T11:52:14;99287.75;;;30.97;45.75
7376;BME280;3728;42.266;24.944;2023-06-14T11:54:44;99286.84;;;30.79;47.90
7376;BME280;3728;42.266;24.944;2023-06-14T11:57:12;99284.34;;;30.41;48.54
7376;BME280;3728;42.266;24.944;2023-06-14T11:59:40;99281.53;;;30.32;48.00
7376;BME280;3728;42.266;24.944;2023-06-14T12:02:07;99274.59;;;30.09;49.02
7376;BME280;3728;42.266;24.944;2023-06-14T12:04:40;99267.31;;;29.59;50.22
7376;BME280;3728;42.266;24.944;2023-06-14T12:07:17;99271.28;;;29.93;49.33
7376;BME280;3728;42.266;24.944;2023-06-14T12:12:26;99271.13;;;30.65;46.81
7376;BME280;3728;42.266;24.944;2023-06-14T12:14:56;99265.22;;;30.79;47.03
7376;BME280;3728;42.266;24.944;2023-06-14T12:17:23;99260.31;;;30.86;47.46
7376;BME280;3728;42.266;24.944;2023-06-14T12:19:55;99263.34;;;30.88;46.54
7376;BME280;3728;42.266;24.944;2023-06-14T12:22:23;99259.03;;;31.31;45.24
7376;BME280;3728;42.266;24.944;2023-06-14T12:24:51;99245.16;;;31.20;47.87
7376;BME280;3728;42.266;24.944;2023-06-14T12:27:21;99253.88;;;31.63;47.56
7376;BME280;3728;42.266;24.944;2023-06-14T12:30:16;99259.38;;;31.91;48.25
7376;BME280;3728;42.266;24.944;2023-06-14T12:32:44;99254.13;;;32.41;44.43
7376;BME280;3728;42.266;24.944;2023-06-14T12:35:12;99261.81;;;32.61;46.85
7376;BME280;3728;42.266;24.944;2023-06-14T12:37:42;99258.06;;;32.59;45.74
7376;BME280;3728;42.266;24.944;2023-06-14T12:40:11;99253.50;;;32.65;45.06
7376;BME280;3728;42.266;24.944;2023-06-14T12:42:40;99245.69;;;32.39;44.16
7376;BME280;3728;42.266;24.944;2023-06-14T12:45:08;99243.44;;;32.02;45.23
7376;BME280;3728;42.266;24.944;2023-06-14T12:47:37;99241.31;;;31.88;45.67
7376;BME280;3728;42.266;24.944;2023-06-14T12:50:05;99241.03;;;32.31;44.04
7376;BME280;3728;42.266;24.944;2023-06-14T12:52:53;99238.03;;;32.02;43.63
7376;BME280;3728;42.266;24.944;2023-06-14T12:55:21;99229.41;;;31.76;45.08
7376;BME280;3728;42.266;24.944;2023-06-14T12:57:52;99219.91;;;31.71;44.02
7376;BME280;3728;42.266;24.944;2023-06-14T13:00:19;99223.19;;;31.57;44.66
7376;BME280;3728;42.266;24.944;2023-06-14T13:02:49;99216.13;;;31.51;46.11
7376;BME280;3728;42.266;24.944;2023-06-14T13:05:18;99207.16;;;31.99;43.57
7376;BME280;3728;42.266;24.944;2023-06-14T13:07:45;99211.09;;;32.07;43.98
7376;BME280;3728;42.266;24.944;2023-06-14T13:10:13;99212.75;;;32.14;42.34
7376;BME280;3728;42.266;24.944;2023-06-14T13:12:41;99215.59;;;32.19;42.64
7376;BME280;3728;42.266;24.944;2023-06-14T13:15:09;99217.09;;;32.11;44.21
7376;BME280;3728;42.266;24.944;2023-06-14T13:17:36;99226.59;;;32.16;44.93
7376;BME280;3728;42.266;24.944;2023-06-14T13:20:09;99209.66;;;31.66;47.15
7376;BME280;3728;42.266;24.944;2023-06-14T13:22:38;99212.56;;;31.72;43.82
7376;BME280;3728;42.266;24.944;2023-06-14T13:25:06;99209.53;;;31.21;44.61
7376;BME280;3728;42.266;24.944;2023-06-14T13:27:34;99206.97;;;30.87;45.13
7376;BME280;3728;42.266;24.944;2023-06-14T13:30:03;99208.66;;;30.63;47.97
7376;BME280;3728;42.266;24.944;2023-06-14T13:32:32;99203.69;;;30.61;47.90
7376;BME280;3728;42.266;24.944;2023-06-14T13:34:59;99206.38;;;30.61;49.25
7376;BME280;3728;42.266;24.944;2023-06-14T13:37:27;99200.53;;;30.19;51.86
7376;BME280;3728;42.266;24.944;2023-06-14T13:39:55;99190.66;;;30.04;52.35